sensor_id;sensor_type;location;lat;lon;timestamp;P1;durP1;ratioP1;P2;durP2;ratioP2
55684;SDS011;41883;49.544;8.646;2022-07-29T00:00:25;3.10;;;1.43;;
55684;SDS011;41883;49.544;8.646;2022-07-29T00:02:50;2.80;;;1.50;;
55684;SDS011;41883;49.544;8.646;2022-07-29T00:05:16;2.85;;;1.45;;
55684;SDS011;41883;49.544;8.646;2022-07-29T00:07:41;2.47;;;1.55;;
55684;SDS011;41883;49.544;8.646;2022-07-29T00:10:07;2.95;;;1.42;;
55684;SDS011;41883;49.544;8.646;2022-07-29T00:12:32;3.55;;;1.70;;
55684;SDS011;41883;49.544;8.646;2022-07-29T00:14:58;3.13;;;1.60;;
55684;SDS011;41883;49.544;8.646;2022-07-29T00:17:23;2.43;;;1.70;;
55684;SDS011;41883;49.544;8.646;2022-07-29T00:19:49;3.45;;;1.70;;
55684;SDS011;41883;49.544;8.646;2022-07-29T00:22:14;2.80;;;1.80;;
55684;SDS011;41883;49.544;8.646;2022-07-29T00:24:40;3.72;;;2.13;;
55684;SDS011;41883;49.544;8.646;2022-07-29T00:27:05;3.40;;;2.00;;
55684;SDS011;41883;49.544;8.646;2022-07-29T00:29:31;2.75;;;1.80;;
55684;SDS011;41883;49.544;8.646;2022-07-29T00:31:56;3.75;;;2.00;;
55684;SDS011;41883;49.544;8.646;2022-07-29T00:34:21;2.50;;;1.40;;
55684;SDS011;41883;49.544;8.646;2022-07-29T00:37:05;3.78;;;1.80;;
55684;SDS011;41883;49.544;8.646;2022-07-29T00:39:30;2.72;;;1.90;;
55684;SDS011;41883;49.544;8.646;2022-07-29T00:41:55;2.35;;;1.75;;
55684;SDS011;41883;49.544;8.646;2022-07-29T00:44:21;1.75;;;1.40;;
55684;SDS011;41883;49.544;8.646;2022-07-29T00:46:46;2.80;;;1.60;;
55684;SDS011;41883;49.544;8.646;2022-07-29T00:49:12;2.58;;;1.65;;
55684;SDS011;41883;49.544;8.646;2022-07-29T00:51:37;2.00;;;1.60;;
55684;SDS011;41883;49.544;8.646;2022-07-29T00:54:04;2.88;;;1.90;;
55684;SDS011;41883;49.544;8.646;2022-07-29T00:56:30;2.90;;;1.88;;
55684;SDS011;41883;49.544;8.646;2022-07-29T00:58:56;3.58;;;1.92;;
55684;SDS011;41883;49.544;8.646;2022-07-29T01:01:22;3.50;;;1.63;;
55684;SDS011;41883;49.544;8.646;2022-07-29T01:03:47;3.67;;;2.22;;
55684;SDS011;41883;49.544;8.646;2022-07-29T01:06:12;3.25;;;2.10;;
55684;SDS011;41883;49.544;8.646;2022-07-29T01:08:39;4.65;;;2.13;;
55684;SDS011;41883;49.544;8.646;2022-07-29T01:11:05;2.85;;;2.10;;
55684;SDS011;41883;49.544;8.646;2022-07-29T01:13:30;4.72;;;2.10;;
55684;SDS011;41883;49.544;8.646;2022-07-29T01:15:58;3.13;;;1.98;;
55684;SDS011;41883;49.544;8.646;2022-07-29T01:18:30;3.25;;;2.00;;
55684;SDS011;41883;49.544;8.646;2022-07-29T01:26:31;2.83;;;1.90;;
55684;SDS011;41883;49.544;8.646;2022-07-29T01:29:12;4.22;;;1.98;;
55684;SDS011;41883;49.544;8.646;2022-07-29T01:32:05;1.90;;;1.70;;
55684;SDS011;41883;49.544;8.646;2022-07-29T01:34:41;3.03;;;1.83;;
55684;SDS011;41883;49.544;8.646;2022-07-29T01:37:20;3.63;;;1.95;;
55684;SDS011;41883;49.544;8.646;2022-07-29T01:39:49;3.05;;;1.98;;
55684;SDS011;41883;49.544;8.646;2022-07-29T01:45:02;3.15;;;1.80;;
55684;SDS011;41883;49.544;8.646;2022-07-29T01:47:35;3.28;;;1.60;;
55684;SDS011;41883;49.544;8.646;2022-07-29T01:50:06;2.03;;;1.52;;
55684;SDS011;41883;49.544;8.646;2022-07-29T01:52:36;3.13;;;1.83;;
55684;SDS011;41883;49.544;8.646;2022-07-29T01:55:08;3.22;;;2.08;;
55684;SDS011;41883;49.544;8.646;2022-07-29T01:57:38;2.20;;;1.50;;
55684;SDS011;41883;49.544;8.646;2022-07-29T02:00:05;2.38;;;1.98;;
55684;SDS011;41883;49.544;8.646;2022-07-29T02:02:31;3.40;;;1.83;;
55684;SDS011;41883;49.544;8.646;2022-07-29T02:04:59;3.05;;;2.03;;
55684;SDS011;41883;49.544;8.646;2022-07-29T02:07:28;3.83;;;2.00;;
55684;SDS011;41883;49.544;8.646;2022-07-29T02:09:56;4.43;;;2.47;;
55684;SDS011;41883;49.544;8.646;2022-07-29T02:12:23;3.40;;;1.98;;
55684;SDS011;41883;49.544;8.646;2022-07-29T02:14:51;2.28;;;1.65;;
55684;SDS011;41883;49.544;8.646;2022-07-29T02:17:27;4.43;;;2.33;;
55684;SDS011;41883;49.544;8.646;2022-07-29T02:19:59;3.97;;;2.42;;
55684;SDS011;41883;49.544;8.646;2022-07-29T02:22:28;3.90;;;2.47;;
55684;SDS011;41883;49.544;8.646;2022-07-29T02:24:55;4.45;;;2.28;;
55684;SDS011;41883;49.544;8.646;2022-07-29T02:27:21;3.35;;;2.08;;
55684;SDS011;41883;49.544;8.646;2022-07-29T02:29:50;4.03;;;1.92;;
55684;SDS011;41883;49.544;8.646;2022-07-29T02:32:18;2.72;;;1.88;;
55684;SDS011;41883;49.544;8.646;2022-07-29T02:34:46;3.22;;;2.00;;
55684;SDS011;41883;49.544;8.646;2022-07-29T02:37:12;2.63;;;2.03;;
55684;SDS011;41883;49.544;8.646;2022-07-29T02:39:39;2.40;;;2.00;;
55684;SDS011;41883;49.544;8.646;2022-07-29T02:42:07;3.17;;;2.10;;
55684;SDS011;41883;49.544;8.646;2022-07-29T02:44:35;3.55;;;1.88;;
55684;SDS011;41883;49.544;8.646;2022-07-29T02:49:54;3.75;;;2.40;;
55684;SDS011;41883;49.544;8.646;2022-07-29T02:53:08;5.25;;;1.88;;
55684;SDS011;41883;49.544;8.646;2022-07-29T02:55:40;2.85;;;1.92;;
55684;SDS011;41883;49.544;8.646;2022-07-29T02:58:15;4.00;;;2.13;;
55684;SDS011;41883;49.544;8.646;2022-07-29T03:00:44;3.97;;;1.98;;
55684;SDS011;41883;49.544;8.646;2022-07-29T03:03:13;3.50;;;1.90;;
55684;SDS011;41883;49.544;8.646;2022-07-29T03:05:41;4.03;;;2.00;;
55684;SDS011;41883;49.544;8.646;2022-07-29T03:08:08;3.10;;;2.08;;
55684;SDS011;41883;49.544;8.646;2022-07-29T03:10:35;3.92;;;2.33;;
55684;SDS011;41883;49.544;8.646;2022-07-29T03:13:02;4.68;;;2.17;;
55684;SDS011;41883;49.544;8.646;2022-07-29T03:15:29;4.82;;;2.13;;
55684;SDS011;41883;49.544;8.646;2022-07-29T03:17:55;4.18;;;2.33;;
55684;SDS011;41883;49.544;8.646;2022-07-29T03:20:23;4.82;;;1.92;;
55684;SDS011;41883;49.544;8.646;2022-07-29T03:22:48;3.42;;;1.90;;
55684;SDS011;41883;49.544;8.646;2022-07-29T03:25:15;4.88;;;2.13;;
55684;SDS011;41883;49.544;8.646;2022-07-29T03:27:42;2.72;;;1.70;;
55684;SDS011;41883;49.544;8.646;2022-07-29T03:30:07;4.57;;;1.60;;
55684;SDS011;41883;49.544;8.646;2022-07-29T03:32:34;2.85;;;1.80;;
55684;SDS011;41883;49.544;8.646;2022-07-29T03:35:00;2.70;;;1.70;;
55684;SDS011;41883;49.544;8.646;2022-07-29T03:37:25;3.08;;;1.90;;
55684;SDS011;41883;49.544;8.646;2022-07-29T03:39:51;3.22;;;2.05;;
55684;SDS011;41883;49.544;8.646;2022-07-29T03:42:19;4.30;;;1.83;;
55684;SDS011;41883;49.544;8.646;2022-07-29T03:44:47;2.67;;;1.90;;
55684;SDS011;41883;49.544;8.646;2022-07-29T03:47:15;3.15;;;2.08;;
55684;SDS011;41883;49.544;8.646;2022-07-29T03:49:46;2.50;;;1.90;;
55684;SDS011;41883;49.544;8.646;2022-07-29T03:52:13;3.47;;;2.08;;
55684;SDS011;41883;49.544;8.646;2022-07-29T03:54:38;3.15;;;2.08;;
55684;SDS011;41883;49.544;8.646;2022-07-29T03:57:04;3.35;;;2.00;;
55684;SDS011;41883;49.544;8.646;2022-07-29T03:59:31;3.35;;;1.98;;
55684;SDS011;41883;49.544;8.646;2022-07-29T04:01:59;3.35;;;1.70;;
55684;SDS011;41883;49.544;8.646;2022-07-29T04:04:27;3.20;;;2.00;;
55684;SDS011;41883;49.544;8.646;2022-07-29T04:06:52;2.35;;;1.80;;
55684;SDS011;41883;49.544;8.646;2022-07-29T04:09:18;2.60;;;1.85;;
55684;SDS011;41883;49.544;8.646;2022-07-29T04:11:43;2.90;;;1.70;;
55684;SDS011;41883;49.544;8.646;2022-07-29T04:14:09;2.72;;;1.88;;
55684;SDS011;41883;49.544;8.646;2022-07-29T04:16:35;2.35;;;1.50;;
55684;SDS011;41883;49.544;8.646;2022-07-29T04:19:00;3.13;;;1.90;;
55684;SDS011;41883;49.544;8.646;2022-07-29T04:21:25;2.78;;;1.90;;
55684;SDS011;41883;49.544;8.646;2022-07-29T04:23:51;2.65;;;1.88;;
55684;SDS011;41883;49.544;8.646;2022-07-29T04:26:16;3.20;;;2.00;;
55684;SDS011;41883;49.544;8.646;2022-07-29T04:28:42;2.85;;;1.80;;
55684;SDS011;41883;49.544;8.646;2022-07-29T04:31:08;4.30;;;2.30;;
55684;SDS011;41883;49.544;8.646;2022-07-29T04:33:34;2.78;;;2.10;;
55684;SDS011;41883;49.544;8.646;2022-07-29T04:35:59;3.03;;;2.10;;
55684;SDS011;41883;49.544;8.646;2022-07-29T04:38:24;4.68;;;2.28;;
55684;SDS011;41883;49.544;8.646;2022-07-29T04:40:50;3.90;;;2.15;;
55684;SDS011;41883;49.544;8.646;2022-07-29T04:43:15;2.90;;;2.03;;
55684;SDS011;41883;49.544;8.646;2022-07-29T04:45:40;3.13;;;1.90;;
55684;SDS011;41883;49.544;8.646;2022-07-29T04:48:06;2.88;;;2.10;;
55684;SDS011;41883;49.544;8.646;2022-07-29T04:50:31;4.63;;;2.10;;
55684;SDS011;41883;49.544;8.646;2022-07-29T04:52:57;4.10;;;2.35;;
55684;SDS011;41883;49.544;8.646;2022-07-29T04:55:22;3.35;;;2.13;;
55684;SDS011;41883;49.544;8.646;2022-07-29T04:57:48;3.38;;;2.20;;
55684;SDS011;41883;49.544;8.646;2022-07-29T05:00:13;2.53;;;1.90;;
55684;SDS011;41883;49.544;8.646;2022-07-29T05:02:38;3.47;;;2.05;;
55684;SDS011;41883;49.544;8.646;2022-07-29T05:05:04;3.65;;;2.10;;
55684;SDS011;41883;49.544;8.646;2022-07-29T05:07:29;3.08;;;2.00;;
55684;SDS011;41883;49.544;8.646;2022-07-29T05:09:55;3.70;;;2.22;;
55684;SDS011;41883;49.544;8.646;2022-07-29T05:12:21;4.20;;;2.47;;
55684;SDS011;41883;49.544;8.646;2022-07-29T05:14:47;4.10;;;2.60;;
55684;SDS011;41883;49.544;8.646;2022-07-29T05:17:12;3.10;;;2.00;;
55684;SDS011;41883;49.544;8.646;2022-07-29T05:19:38;2.92;;;2.10;;
55684;SDS011;41883;49.544;8.646;2022-07-29T05:22:03;3.50;;;2.30;;
55684;SDS011;41883;49.544;8.646;2022-07-29T05:24:28;3.57;;;2.20;;
55684;SDS011;41883;49.544;8.646;2022-07-29T05:26:53;3.55;;;2.28;;
55684;SDS011;41883;49.544;8.646;2022-07-29T05:29:19;3.53;;;2.10;;
55684;SDS011;41883;49.544;8.646;2022-07-29T05:31:44;3.20;;;2.20;;
55684;SDS011;41883;49.544;8.646;2022-07-29T05:34:09;3.47;;;2.20;;
55684;SDS011;41883;49.544;8.646;2022-07-29T05:36:35;4.85;;;2.10;;
55684;SDS011;41883;49.544;8.646;2022-07-29T05:39:00;6.25;;;2.17;;
55684;SDS011;41883;49.544;8.646;2022-07-29T05:41:25;2.75;;;2.33;;
55684;SDS011;41883;49.544;8.646;2022-07-29T05:43:51;3.83;;;2.13;;
55684;SDS011;41883;49.544;8.646;2022-07-29T05:46:16;2.80;;;2.20;;
55684;SDS011;41883;49.544;8.646;2022-07-29T05:48:42;3.42;;;2.00;;
55684;SDS011;41883;49.544;8.646;2022-07-29T05:51:07;4.15;;;2.00;;
55684;SDS011;41883;49.544;8.646;2022-07-29T05:53:32;3.78;;;2.10;;
55684;SDS011;41883;49.544;8.646;2022-07-29T05:55:58;2.65;;;1.80;;
55684;SDS011;41883;49.544;8.646;2022-07-29T05:58:23;3.53;;;2.10;;
55684;SDS011;41883;49.544;8.646;2022-07-29T06:00:48;3.72;;;2.03;;
55684;SDS011;41883;49.544;8.646;2022-07-29T06:03:14;4.07;;;2.38;;
55684;SDS011;41883;49.544;8.646;2022-07-29T06:05:39;3.63;;;2.10;;
55684;SDS011;41883;49.544;8.646;2022-07-29T06:08:04;3.60;;;2.10;;
55684;SDS011;41883;49.544;8.646;2022-07-29T06:10:36;2.50;;;2.00;;
55684;SDS011;41883;49.544;8.646;2022-07-29T06:13:02;3.25;;;2.00;;
55684;SDS011;41883;49.544;8.646;2022-07-29T06:15:27;3.97;;;1.80;;
55684;SDS011;41883;49.544;8.646;2022-07-29T06:17:53;3.08;;;1.80;;
55684;SDS011;41883;49.544;8.646;2022-07-29T06:20:18;3.13;;;1.87;;
55684;SDS011;41883;49.544;8.646;2022-07-29T06:22:44;3.83;;;1.92;;
55684;SDS011;41883;49.544;8.646;2022-07-29T06:25:09;2.45;;;1.40;;
55684;SDS011;41883;49.544;8.646;2022-07-29T06:27:34;2.72;;;1.40;;
55684;SDS011;41883;49.544;8.646;2022-07-29T06:30:00;3.03;;;1.70;;
55684;SDS011;41883;49.544;8.646;2022-07-29T06:32:26;1.83;;;1.40;;
55684;SDS011;41883;49.544;8.646;2022-07-29T06:34:52;2.10;;;1.40;;
55684;SDS011;41883;49.544;8.646;2022-07-29T06:37:17;2.10;;;1.50;;
55684;SDS011;41883;49.544;8.646;2022-07-29T06:39:42;3.30;;;1.90;;
55684;SDS011;41883;49.544;8.646;2022-07-29T06:42:07;3.90;;;1.60;;
55684;SDS011;41883;49.544;8.646;2022-07-29T06:44:33;3.20;;;1.80;;
55684;SDS011;41883;49.544;8.646;2022-07-29T06:47:01;2.05;;;1.60;;
55684;SDS011;41883;49.544;8.646;2022-07-29T06:49:27;3.13;;;1.70;;
55684;SDS011;41883;49.544;8.646;2022-07-29T06:51:52;2.97;;;2.00;;
55684;SDS011;41883;49.544;8.646;2022-07-29T06:54:18;3.08;;;1.92;;
55684;SDS011;41883;49.544;8.646;2022-07-29T06:56:43;4.67;;;2.17;;
55684;SDS011;41883;49.544;8.646;2022-07-29T06:59:09;4.75;;;1.85;;
55684;SDS011;41883;49.544;8.646;2022-07-29T07:01:36;3.50;;;1.80;;
55684;SDS011;41883;49.544;8.646;2022-07-29T07:04:02;4.93;;;1.98;;
55684;SDS011;41883;49.544;8.646;2022-07-29T07:06:27;4.63;;;1.80;;
55684;SDS011;41883;49.544;8.646;2022-07-29T07:08:53;5.20;;;2.20;;
55684;SDS011;41883;49.544;8.646;2022-07-29T07:11:18;3.00;;;2.08;;
55684;SDS011;41883;49.544;8.646;2022-07-29T07:13:44;5.15;;;2.10;;
55684;SDS011;41883;49.544;8.646;2022-07-29T07:16:09;3.63;;;1.83;;
55684;SDS011;41883;49.544;8.646;2022-07-29T07:18:34;2.83;;;1.90;;
55684;SDS011;41883;49.544;8.646;2022-07-29T07:20:59;5.50;;;1.67;;
55684;SDS011;41883;49.544;8.646;2022-07-29T07:23:25;3.25;;;1.85;;
55684;SDS011;41883;49.544;8.646;2022-07-29T07:25:50;2.75;;;1.75;;
55684;SDS011;41883;49.544;8.646;2022-07-29T07:28:16;2.85;;;1.60;;
55684;SDS011;41883;49.544;8.646;2022-07-29T07:30:41;3.03;;;1.80;;
55684;SDS011;41883;49.544;8.646;2022-07-29T07:33:06;2.97;;;1.90;;
55684;SDS011;41883;49.544;8.646;2022-07-29T07:35:31;3.13;;;1.90;;
55684;SDS011;41883;49.544;8.646;2022-07-29T07:37:57;2.88;;;2.08;;
55684;SDS011;41883;49.544;8.646;2022-07-29T07:40:23;2.33;;;1.77;;
55684;SDS011;41883;49.544;8.646;2022-07-29T07:42:49;2.88;;;1.77;;
55684;SDS011;41883;49.544;8.646;2022-07-29T07:45:14;2.58;;;1.63;;
55684;SDS011;41883;49.544;8.646;2022-07-29T07:47:40;2.42;;;1.60;;
55684;SDS011;41883;49.544;8.646;2022-07-29T07:50:07;3.30;;;1.95;;
55684;SDS011;41883;49.544;8.646;2022-07-29T07:52:45;7.35;;;1.83;;
55684;SDS011;41883;49.544;8.646;2022-07-29T07:55:14;3.08;;;1.90;;
55684;SDS011;41883;49.544;8.646;2022-07-29T07:57:39;3.08;;;1.80;;
55684;SDS011;41883;49.544;8.646;2022-07-29T08:00:05;3.70;;;2.03;;
55684;SDS011;41883;49.544;8.646;2022-07-29T08:02:31;3.88;;;2.05;;
55684;SDS011;41883;49.544;8.646;2022-07-29T08:04:56;3.95;;;2.35;;
55684;SDS011;41883;49.544;8.646;2022-07-29T08:07:22;3.13;;;2.22;;
55684;SDS011;41883;49.544;8.646;2022-07-29T08:09:47;2.97;;;2.00;;
55684;SDS011;41883;49.544;8.646;2022-07-29T08:12:12;3.77;;;2.30;;
55684;SDS011;41883;49.544;8.646;2022-07-29T08:14:37;3.20;;;1.97;;
55684;SDS011;41883;49.544;8.646;2022-07-29T08:17:03;3.80;;;2.10;;
55684;SDS011;41883;49.544;8.646;2022-07-29T08:19:28;2.63;;;1.80;;
55684;SDS011;41883;49.544;8.646;2022-07-29T08:21:54;3.58;;;1.90;;
55684;SDS011;41883;49.544;8.646;2022-07-29T08:24:20;3.50;;;2.20;;
55684;SDS011;41883;49.544;8.646;2022-07-29T08:27:04;4.28;;;2.22;;
55684;SDS011;41883;49.544;8.646;2022-07-29T08:29:30;3.88;;;2.10;;
55684;SDS011;41883;49.544;8.646;2022-07-29T08:31:55;2.73;;;2.00;;
55684;SDS011;41883;49.544;8.646;2022-07-29T08:34:20;2.10;;;1.65;;
55684;SDS011;41883;49.544;8.646;2022-07-29T08:36:46;2.70;;;1.80;;
55684;SDS011;41883;49.544;8.646;2022-07-29T08:39:11;2.50;;;1.77;;
55684;SDS011;41883;49.544;8.646;2022-07-29T08:41:36;3.95;;;1.90;;
55684;SDS011;41883;49.544;8.646;2022-07-29T08:44:02;2.40;;;1.60;;
55684;SDS011;41883;49.544;8.646;2022-07-29T08:46:28;2.38;;;1.85;;
55684;SDS011;41883;49.544;8.646;2022-07-29T08:48:53;2.95;;;2.15;;
55684;SDS011;41883;49.544;8.646;2022-07-29T08:51:20;2.70;;;1.77;;
55684;SDS011;41883;49.544;8.646;2022-07-29T08:53:47;3.30;;;1.98;;
55684;SDS011;41883;49.544;8.646;2022-07-29T08:56:14;2.83;;;1.95;;
55684;SDS011;41883;49.544;8.646;2022-07-29T08:58:44;2.90;;;2.33;;
55684;SDS011;41883;49.544;8.646;2022-07-29T09:01:11;3.65;;;2.10;;
55684;SDS011;41883;49.544;8.646;2022-07-29T09:03:58;5.38;;;2.20;;
55684;SDS011;41883;49.544;8.646;2022-07-29T09:06:24;3.25;;;1.90;;
55684;SDS011;41883;49.544;8.646;2022-07-29T09:08:52;3.75;;;2.17;;
55684;SDS011;41883;49.544;8.646;2022-07-29T09:11:22;4.15;;;2.38;;
55684;SDS011;41883;49.544;8.646;2022-07-29T09:13:47;4.53;;;2.15;;
55684;SDS011;41883;49.544;8.646;2022-07-29T09:16:14;3.97;;;2.20;;
55684;SDS011;41883;49.544;8.646;2022-07-29T09:18:41;4.10;;;2.25;;
55684;SDS011;41883;49.544;8.646;2022-07-29T09:21:09;3.50;;;2.17;;
55684;SDS011;41883;49.544;8.646;2022-07-29T09:24:01;3.28;;;2.00;;
55684;SDS011;41883;49.544;8.646;2022-07-29T09:26:32;3.92;;;2.35;;
55684;SDS011;41883;49.544;8.646;2022-07-29T09:29:15;5.80;;;2.03;;
55684;SDS011;41883;49.544;8.646;2022-07-29T09:31:44;4.30;;;2.03;;
55684;SDS011;41883;49.544;8.646;2022-07-29T09:34:12;2.78;;;2.28;;
55684;SDS011;41883;49.544;8.646;2022-07-29T09:36:40;3.50;;;2.40;;
55684;SDS011;41883;49.544;8.646;2022-07-29T09:39:10;3.08;;;2.00;;
55684;SDS011;41883;49.544;8.646;2022-07-29T09:41:45;3.45;;;2.38;;
55684;SDS011;41883;49.544;8.646;2022-07-29T09:44:15;3.10;;;2.20;;
55684;SDS011;41883;49.544;8.646;2022-07-29T09:46:52;4.30;;;2.55;;
55684;SDS011;41883;49.544;8.646;2022-07-29T09:49:31;4.10;;;2.05;;
55684;SDS011;41883;49.544;8.646;2022-07-29T09:52:08;3.60;;;2.72;;
55684;SDS011;41883;49.544;8.646;2022-07-29T09:54:35;5.03;;;2.53;;
55684;SDS011;41883;49.544;8.646;2022-07-29T09:57:04;2.67;;;2.20;;
55684;SDS011;41883;49.544;8.646;2022-07-29T09:59:31;3.58;;;2.30;;
55684;SDS011;41883;49.544;8.646;2022-07-29T10:01:57;3.97;;;2.30;;
55684;SDS011;41883;49.544;8.646;2022-07-29T10:04:22;3.97;;;2.33;;
55684;SDS011;41883;49.544;8.646;2022-07-29T10:06:58;6.30;;;2.60;;
55684;SDS011;41883;49.544;8.646;2022-07-29T10:09:24;4.70;;;2.10;;
55684;SDS011;41883;49.544;8.646;2022-07-29T10:12:06;4.15;;;2.60;;
55684;SDS011;41883;49.544;8.646;2022-07-29T10:14:36;3.03;;;2.30;;
55684;SDS011;41883;49.544;8.646;2022-07-29T10:17:03;4.65;;;2.47;;
55684;SDS011;41883;49.544;8.646;2022-07-29T10:19:29;4.63;;;2.20;;
55684;SDS011;41883;49.544;8.646;2022-07-29T10:21:57;3.33;;;2.05;;
55684;SDS011;41883;49.544;8.646;2022-07-29T10:24:26;3.13;;;2.20;;
55684;SDS011;41883;49.544;8.646;2022-07-29T10:26:56;4.80;;;2.27;;
55684;SDS011;41883;49.544;8.646;2022-07-29T10:29:23;3.75;;;2.30;;
55684;SDS011;41883;49.544;8.646;2022-07-29T10:31:55;5.10;;;2.80;;
55684;SDS011;41883;49.544;8.646;2022-07-29T10:42:23;5.07;;;2.60;;
55684;SDS011;41883;49.544;8.646;2022-07-29T10:44:50;3.50;;;2.60;;
55684;SDS011;41883;49.544;8.646;2022-07-29T10:47:21;3.83;;;2.00;;
55684;SDS011;41883;49.544;8.646;2022-07-29T10:49:54;3.35;;;2.22;;
55684;SDS011;41883;49.544;8.646;2022-07-29T10:52:24;3.65;;;2.40;;
55684;SDS011;41883;49.544;8.646;2022-07-29T10:54:52;2.95;;;2.05;;
55684;SDS011;41883;49.544;8.646;2022-07-29T10:57:22;4.07;;;2.22;;
55684;SDS011;41883;49.544;8.646;2022-07-29T11:05:17;4.25;;;2.50;;
55684;SDS011;41883;49.544;8.646;2022-07-29T11:08:44;6.38;;;3.00;;
55684;SDS011;41883;49.544;8.646;2022-07-29T11:10:44;4.45;;;2.53;;
55684;SDS011;41883;49.544;8.646;2022-07-29T11:13:10;4.47;;;2.60;;
55684;SDS011;41883;49.544;8.646;2022-07-29T11:16:18;5.28;;;2.70;;
55684;SDS011;41883;49.544;8.646;2022-07-29T11:18:24;4.85;;;2.58;;
55684;SDS011;41883;49.544;8.646;2022-07-29T11:20:50;3.67;;;2.28;;
55684;SDS011;41883;49.544;8.646;2022-07-29T11:28:39;3.53;;;2.42;;
55684;SDS011;41883;49.544;8.646;2022-07-29T11:31:16;4.50;;;2.38;;
55684;SDS011;41883;49.544;8.646;2022-07-29T11:33:44;5.07;;;2.67;;
55684;SDS011;41883;49.544;8.646;2022-07-29T11:36:13;5.70;;;3.15;;
55684;SDS011;41883;49.544;8.646;2022-07-29T11:38:40;4.80;;;2.78;;
55684;SDS011;41883;49.544;8.646;2022-07-29T11:41:21;4.07;;;2.70;;
55684;SDS011;41883;49.544;8.646;2022-07-29T11:43:57;4.60;;;2.42;;
55684;SDS011;41883;49.544;8.646;2022-07-29T11:49:21;4.75;;;2.72;;
55684;SDS011;41883;49.544;8.646;2022-07-29T11:51:51;3.95;;;2.72;;
55684;SDS011;41883;49.544;8.646;2022-07-29T11:54:24;4.15;;;2.60;;
55684;SDS011;41883;49.544;8.646;2022-07-29T11:56:51;5.60;;;2.80;;
55684;SDS011;41883;49.544;8.646;2022-07-29T11:59:17;5.70;;;2.83;;
55684;SDS011;41883;49.544;8.646;2022-07-29T12:01:54;4.20;;;2.38;;
55684;SDS011;41883;49.544;8.646;2022-07-29T12:04:20;8.23;;;3.00;;
55684;SDS011;41883;49.544;8.646;2022-07-29T12:06:49;4.00;;;2.00;;
55684;SDS011;41883;49.544;8.646;2022-07-29T12:09:18;2.60;;;1.90;;
55684;SDS011;41883;49.544;8.646;2022-07-29T12:11:45;4.32;;;2.13;;
55684;SDS011;41883;49.544;8.646;2022-07-29T12:14:30;5.00;;;2.33;;
55684;SDS011;41883;49.544;8.646;2022-07-29T12:16:59;3.83;;;2.22;;
55684;SDS011;41883;49.544;8.646;2022-07-29T12:19:25;4.45;;;2.47;;
55684;SDS011;41883;49.544;8.646;2022-07-29T12:21:52;4.53;;;2.20;;
55684;SDS011;41883;49.544;8.646;2022-07-29T12:24:20;4.55;;;2.45;;
55684;SDS011;41883;49.544;8.646;2022-07-29T12:26:52;3.33;;;2.28;;
55684;SDS011;41883;49.544;8.646;2022-07-29T12:29:19;3.17;;;2.10;;
55684;SDS011;41883;49.544;8.646;2022-07-29T12:31:45;4.78;;;2.40;;
55684;SDS011;41883;49.544;8.646;2022-07-29T12:34:14;4.50;;;2.38;;
55684;SDS011;41883;49.544;8.646;2022-07-29T12:36:41;3.40;;;2.05;;
55684;SDS011;41883;49.544;8.646;2022-07-29T12:39:07;4.30;;;2.28;;
55684;SDS011;41883;49.544;8.646;2022-07-29T12:41:34;5.47;;;2.45;;
55684;SDS011;41883;49.544;8.646;2022-07-29T12:43:59;3.33;;;2.17;;
55684;SDS011;41883;49.544;8.646;2022-07-29T12:46:24;5.00;;;2.37;;
55684;SDS011;41883;49.544;8.646;2022-07-29T12:48:51;3.67;;;1.90;;
55684;SDS011;41883;49.544;8.646;2022-07-29T12:51:35;3.63;;;2.53;;
55684;SDS011;41883;49.544;8.646;2022-07-29T12:54:06;3.90;;;2.30;;
55684;SDS011;41883;49.544;8.646;2022-07-29T12:56:42;4.05;;;2.60;;
55684;SDS011;41883;49.544;8.646;2022-07-29T13:01:42;3.72;;;2.40;;
55684;SDS011;41883;49.544;8.646;2022-07-29T13:04:09;3.13;;;2.25;;
55684;SDS011;41883;49.544;8.646;2022-07-29T13:09:05;5.23;;;2.40;;
55684;SDS011;41883;49.544;8.646;2022-07-29T13:11:39;3.65;;;2.13;;
55684;SDS011;41883;49.544;8.646;2022-07-29T13:14:07;2.97;;;2.17;;
55684;SDS011;41883;49.544;8.646;2022-07-29T13:16:34;6.45;;;2.67;;
55684;SDS011;41883;49.544;8.646;2022-07-29T13:19:11;3.55;;;2.13;;
55684;SDS011;41883;49.544;8.646;2022-07-29T13:21:37;3.60;;;2.35;;
55684;SDS011;41883;49.544;8.646;2022-07-29T13:24:07;3.53;;;2.30;;
55684;SDS011;41883;49.544;8.646;2022-07-29T13:26:33;2.67;;;1.90;;
55684;SDS011;41883;49.544;8.646;2022-07-29T13:28:58;5.70;;;2.58;;
55684;SDS011;41883;49.544;8.646;2022-07-29T13:31:24;3.27;;;2.00;;
55684;SDS011;41883;49.544;8.646;2022-07-29T13:33:49;3.20;;;2.10;;
55684;SDS011;41883;49.544;8.646;2022-07-29T13:36:14;3.38;;;1.98;;
55684;SDS011;41883;49.544;8.646;2022-07-29T13:38:40;3.58;;;2.00;;
55684;SDS011;41883;49.544;8.646;2022-07-29T13:41:05;4.87;;;2.30;;
55684;SDS011;41883;49.544;8.646;2022-07-29T13:43:31;3.47;;;2.05;;
55684;SDS011;41883;49.544;8.646;2022-07-29T13:45:56;4.80;;;2.38;;
55684;SDS011;41883;49.544;8.646;2022-07-29T13:48:21;4.07;;;2.22;;
55684;SDS011;41883;49.544;8.646;2022-07-29T13:50:47;4.00;;;2.30;;
55684;SDS011;41883;49.544;8.646;2022-07-29T13:53:13;5.60;;;2.20;;
55684;SDS011;41883;49.544;8.646;2022-07-29T13:55:38;2.90;;;1.90;;
55684;SDS011;41883;49.544;8.646;2022-07-29T13:58:04;3.90;;;2.30;;
55684;SDS011;41883;49.544;8.646;2022-07-29T14:00:29;5.72;;;2.17;;
55684;SDS011;41883;49.544;8.646;2022-07-29T14:02:55;4.88;;;2.00;;
55684;SDS011;41883;49.544;8.646;2022-07-29T14:05:20;3.90;;;2.33;;
55684;SDS011;41883;49.544;8.646;2022-07-29T14:07:45;3.10;;;2.10;;
55684;SDS011;41883;49.544;8.646;2022-07-29T14:10:11;3.80;;;2.10;;
55684;SDS011;41883;49.544;8.646;2022-07-29T14:12:36;4.82;;;2.20;;
55684;SDS011;41883;49.544;8.646;2022-07-29T14:15:02;3.38;;;2.30;;
55684;SDS011;41883;49.544;8.646;2022-07-29T14:17:27;2.60;;;2.00;;
55684;SDS011;41883;49.544;8.646;2022-07-29T14:19:53;2.77;;;2.10;;
55684;SDS011;41883;49.544;8.646;2022-07-29T14:22:18;3.40;;;2.30;;
55684;SDS011;41883;49.544;8.646;2022-07-29T14:24:44;2.95;;;2.17;;
55684;SDS011;41883;49.544;8.646;2022-07-29T14:27:09;3.28;;;2.30;;
55684;SDS011;41883;49.544;8.646;2022-07-29T14:29:35;3.03;;;1.88;;
55684;SDS011;41883;49.544;8.646;2022-07-29T14:32:01;3.72;;;2.10;;
55684;SDS011;41883;49.544;8.646;2022-07-29T14:34:26;5.43;;;2.30;;
55684;SDS011;41883;49.544;8.646;2022-07-29T14:36:51;3.53;;;2.28;;
55684;SDS011;41883;49.544;8.646;2022-07-29T14:39:20;3.05;;;2.17;;
55684;SDS011;41883;49.544;8.646;2022-07-29T14:41:46;4.15;;;2.47;;
55684;SDS011;41883;49.544;8.646;2022-07-29T14:44:11;2.87;;;2.10;;
55684;SDS011;41883;49.544;8.646;2022-07-29T14:46:36;3.47;;;2.13;;
55684;SDS011;41883;49.544;8.646;2022-07-29T14:49:02;3.38;;;2.20;;
55684;SDS011;41883;49.544;8.646;2022-07-29T14:51:27;2.70;;;2.33;;
55684;SDS011;41883;49.544;8.646;2022-07-29T14:53:52;3.27;;;2.20;;
55684;SDS011;41883;49.544;8.646;2022-07-29T14:56:17;3.25;;;1.90;;
55684;SDS011;41883;49.544;8.646;2022-07-29T14:58:43;3.30;;;2.08;;
55684;SDS011;41883;49.544;8.646;2022-07-29T15:01:08;3.28;;;2.30;;
55684;SDS011;41883;49.544;8.646;2022-07-29T15:03:33;4.47;;;2.47;;
55684;SDS011;41883;49.544;8.646;2022-07-29T15:05:59;3.90;;;2.00;;
55684;SDS011;41883;49.544;8.646;2022-07-29T15:08:24;3.30;;;2.43;;
55684;SDS011;41883;49.544;8.646;2022-07-29T15:10:50;6.20;;;2.50;;
55684;SDS011;41883;49.544;8.646;2022-07-29T15:13:15;3.60;;;2.40;;
55684;SDS011;41883;49.544;8.646;2022-07-29T15:15:40;2.97;;;2.10;;
55684;SDS011;41883;49.544;8.646;2022-07-29T15:18:06;3.25;;;2.05;;
55684;SDS011;41883;49.544;8.646;2022-07-29T15:20:32;2.50;;;2.03;;
55684;SDS011;41883;49.544;8.646;2022-07-29T15:22:57;3.10;;;2.10;;
55684;SDS011;41883;49.544;8.646;2022-07-29T15:25:23;4.40;;;1.92;;
55684;SDS011;41883;49.544;8.646;2022-07-29T15:27:49;4.07;;;1.98;;